sensor_id;sensor_type;location;lat;lon;timestamp;pressure;altitude;pressure_sealevel;temperature;humidity
63500;BME280;49654;51.142;14.924;2022-09-13T00:01:15;99009.06;;;10.88;81.14
63500;BME280;49654;51.142;14.924;2022-09-13T00:03:43;99016.31;;;10.92;80.62
63500;BME280;49654;51.142;14.924;2022-09-13T00:06:11;98999.88;;;10.92;80.99
63500;BME280;49654;51.142;14.924;2022-09-13T00:08:39;98991.03;;;10.86;80.97
63500;BME280;49654;51.142;14.924;2022-09-13T00:11:13;98990.59;;;10.97;81.46
63500;BME280;49654;51.142;14.924;2022-09-13T00:13:41;98990.50;;;10.76;81.93
63500;BME280;49654;51.142;14.924;2022-09-13T00:16:10;98988.78;;;10.98;82.19
63500;BME280;49654;51.142;14.924;2022-09-13T00:18:37;98902.84;;;10.48;81.63
63500;BME280;49654;51.142;14.924;2022-09-13T00:21:08;98985.84;;;11.01;81.42
63500;BME280;49654;51.142;14.924;2022-09-13T00:23:35;98977.41;;;10.99;81.16
63500;BME280;49654;51.142;14.924;2022-09-13T00:26:07;98980.75;;;10.93;81.06
63500;BME280;49654;51.142;14.924;2022-09-13T00:28:35;98957.00;;;10.81;80.56
63500;BME280;49654;51.142;14.924;2022-09-13T00:31:04;98971.59;;;10.97;80.39
63500;BME280;49654;51.142;14.924;2022-09-13T00:33:32;98970.16;;;10.94;80.19
63500;BME280;49654;51.142;14.924;2022-09-13T00:36:02;98971.16;;;10.93;80.55
63500;BME280;49654;51.142;14.924;2022-09-13T00:38:31;98972.69;;;10.88;81.10
63500;BME280;49654;51.142;14.924;2022-09-13T00:41:00;98965.22;;;10.99;81.22
63500;BME280;49654;51.142;14.924;2022-09-13T00:43:42;98960.56;;;11.10;80.96
63500;BME280;49654;51.142;14.924;2022-09-13T00:46:12;98955.53;;;11.08;81.26
63500;BME280;49654;51.142;14.924;2022-09-13T00:48:43;98959.22;;;10.99;81.54
63500;BME280;49654;51.142;14.924;2022-09-13T00:51:12;98955.13;;;10.90;81.97
63500;BME280;49654;51.142;14.924;2022-09-13T00:53:43;98951.31;;;11.07;82.10
63500;BME280;49654;51.142;14.924;2022-09-13T00:56:16;98921.59;;;10.95;82.00
63500;BME280;49654;51.142;14.924;2022-09-13T00:58:48;98941.81;;;10.99;81.88
63500;BME280;49654;51.142;14.924;2022-09-13T01:01:20;98941.81;;;10.99;82.41
63500;BME280;49654;51.142;14.924;2022-09-13T01:03:49;98932.88;;;11.02;81.80
63500;BME280;49654;51.142;14.924;2022-09-13T01:06:19;98932.44;;;10.98;81.78
63500;BME280;49654;51.142;14.924;2022-09-13T01:08:51;98938.28;;;10.86;80.87
63500;BME280;49654;51.142;14.924;2022-09-13T01:11:23;98930.28;;;10.87;82.38
63500;BME280;49654;51.142;14.924;2022-09-13T01:13:53;98930.03;;;10.97;81.93
63500;BME280;49654;51.142;14.924;2022-09-13T01:16:21;98904.97;;;10.74;81.72
63500;BME280;49654;51.142;14.924;2022-09-13T01:18:48;98921.22;;;10.98;82.27
63500;BME280;49654;51.142;14.924;2022-09-13T01:24:35;98919.09;;;10.87;82.38
63500;BME280;49654;51.142;14.924;2022-09-13T01:27:26;98911.06;;;10.82;83.18
63500;BME280;49654;51.142;14.924;2022-09-13T01:30:11;98894.84;;;10.80;82.53
63500;BME280;49654;51.142;14.924;2022-09-13T01:33:11;98903.72;;;10.85;83.03
63500;BME280;49654;51.142;14.924;2022-09-13T01:35:50;98896.75;;;11.07;82.93
63500;BME280;49654;51.142;14.924;2022-09-13T01:38:41;98889.69;;;11.01;81.86
63500;BME280;49654;51.142;14.924;2022-09-13T01:41:20;98879.84;;;10.96;82.25
63500;BME280;49654;51.142;14.924;2022-09-13T01:43:57;98879.03;;;10.96;83.23
63500;BME280;49654;51.142;14.924;2022-09-13T01:46:31;98876.16;;;11.06;83.40
63500;BME280;49654;51.142;14.924;2022-09-13T01:49:06;98884.56;;;11.29;84.13
63500;BME280;49654;51.142;14.924;2022-09-13T01:51:43;98871.88;;;11.41;83.30
63500;BME280;49654;51.142;14.924;2022-09-13T01:54:16;98865.31;;;11.45;83.50
63500;BME280;49654;51.142;14.924;2022-09-13T01:56:52;98863.16;;;11.48;83.61
63500;BME280;49654;51.142;14.924;2022-09-13T01:59:23;98854.81;;;11.60;84.03
63500;BME280;49654;51.142;14.924;2022-09-13T02:01:59;98849.56;;;11.74;84.62
63500;BME280;49654;51.142;14.924;2022-09-13T02:04:32;98851.56;;;12.00;85.42
63500;BME280;49654;51.142;14.924;2022-09-13T02:07:04;98851.44;;;12.15;85.07
63500;BME280;49654;51.142;14.924;2022-09-13T02:09:35;98848.63;;;12.58;84.90
63500;BME280;49654;51.142;14.924;2022-09-13T02:12:06;98848.03;;;12.63;84.02
63500;BME280;49654;51.142;14.924;2022-09-13T02:14:36;98845.88;;;12.73;83.90
63500;BME280;49654;51.142;14.924;2022-09-13T02:17:07;98834.41;;;12.67;83.69
63500;BME280;49654;51.142;14.924;2022-09-13T02:19:40;98839.66;;;12.74;82.95
63500;BME280;49654;51.142;14.924;2022-09-13T02:22:12;98831.22;;;12.65;83.44
63500;BME280;49654;51.142;14.924;2022-09-13T02:24:42;98828.25;;;12.75;83.25
63500;BME280;49654;51.142;14.924;2022-09-13T02:27:13;98823.47;;;12.92;82.90
63500;BME280;49654;51.142;14.924;2022-09-13T02:29:44;98804.22;;;12.86;82.57
63500;BME280;49654;51.142;14.924;2022-09-13T02:32:17;98820.09;;;12.98;82.59
63500;BME280;49654;51.142;14.924;2022-09-13T02:34:50;98815.28;;;13.08;82.15
63500;BME280;49654;51.142;14.924;2022-09-13T02:37:20;98817.50;;;13.11;81.81
63500;BME280;49654;51.142;14.924;2022-09-13T02:39:51;98808.25;;;13.22;81.51
63500;BME280;49654;51.142;14.924;2022-09-13T02:42:24;98815.50;;;13.26;80.61
63500;BME280;49654;51.142;14.924;2022-09-13T02:44:54;98812.88;;;13.20;80.72
63500;BME280;49654;51.142;14.924;2022-09-13T02:47:34;98795.06;;;13.30;80.09
63500;BME280;49654;51.142;14.924;2022-09-13T02:50:11;98808.91;;;13.37;79.69
63500;BME280;49654;51.142;14.924;2022-09-13T02:52:47;98789.81;;;13.17;79.92
63500;BME280;49654;51.142;14.924;2022-09-13T02:55:19;98797.44;;;13.18;80.01
63500;BME280;49654;51.142;14.924;2022-09-13T02:57:52;98801.66;;;13.06;80.19
63500;BME280;49654;51.142;14.924;2022-09-13T03:00:24;98791.59;;;12.90;80.59
63500;BME280;49654;51.142;14.924;2022-09-13T03:02:54;98809.63;;;12.85;80.43
63500;BME280;49654;51.142;14.924;2022-09-13T03:05:22;98798.97;;;12.73;80.71
63500;BME280;49654;51.142;14.924;2022-09-13T03:07:49;98804.38;;;12.71;80.65
63500;BME280;49654;51.142;14.924;2022-09-13T03:10:16;98804.00;;;12.68;81.14
63500;BME280;49654;51.142;14.924;2022-09-13T03:12:59;98805.56;;;12.56;80.64
63500;BME280;49654;51.142;14.924;2022-09-13T03:15:40;98797.88;;;12.41;80.90
63500;BME280;49654;51.142;14.924;2022-09-13T03:18:22;98787.41;;;12.27;81.39
63500;BME280;49654;51.142;14.924;2022-09-13T03:21:04;98787.56;;;12.19;81.46
63500;BME280;49654;51.142;14.924;2022-09-13T03:23:38;98791.75;;;12.14;81.94
63500;BME280;49654;51.142;14.924;2022-09-13T03:26:19;98794.19;;;12.22;82.79
63500;BME280;49654;51.142;14.924;2022-09-13T03:28:57;98788.78;;;12.23;82.27
63500;BME280;49654;51.142;14.924;2022-09-13T03:31:32;98789.59;;;12.24;82.09
63500;BME280;49654;51.142;14.924;2022-09-13T03:34:10;98792.78;;;12.19;82.05
63500;BME280;49654;51.142;14.924;2022-09-13T03:36:43;98772.09;;;12.05;82.28
63500;BME280;49654;51.142;14.924;2022-09-13T03:39:17;98764.94;;;12.13;84.18
63500;BME280;49654;51.142;14.924;2022-09-13T03:41:50;98776.28;;;12.47;84.07
63500;BME280;49654;51.142;14.924;2022-09-13T03:44:20;98777.50;;;12.51;84.08
63500;BME280;49654;51.142;14.924;2022-09-13T03:46:53;98725.78;;;12.48;84.11
63500;BME280;49654;51.142;14.924;2022-09-13T03:49:25;98770.34;;;12.99;83.10
63500;BME280;49654;51.142;14.924;2022-09-13T03:51:53;98694.38;;;12.69;82.21
63500;BME280;49654;51.142;14.924;2022-09-13T03:54:23;98709.00;;;13.10;79.87
63500;BME280;49654;51.142;14.924;2022-09-13T03:57:10;98727.03;;;13.18;79.61
63500;BME280;49654;51.142;14.924;2022-09-13T03:59:41;98768.75;;;13.71;78.46
63500;BME280;49654;51.142;14.924;2022-09-13T04:02:11;98700.41;;;13.36;78.22
63500;BME280;49654;51.142;14.924;2022-09-13T04:04:42;98680.91;;;13.39;77.18
63500;BME280;49654;51.142;14.924;2022-09-13T04:07:11;98670.50;;;13.32;77.14
63500;BME280;49654;51.142;14.924;2022-09-13T04:09:39;98714.34;;;13.68;76.75
63500;BME280;49654;51.142;14.924;2022-09-13T04:12:06;98686.88;;;13.59;76.06
63500;BME280;49654;51.142;14.924;2022-09-13T04:14:34;98743.38;;;13.98;76.32
63500;BME280;49654;51.142;14.924;2022-09-13T04:17:01;98694.84;;;13.84;75.79
63500;BME280;49654;51.142;14.924;2022-09-13T04:19:28;98625.94;;;13.40;75.28
63500;BME280;49654;51.142;14.924;2022-09-13T04:21:57;98627.56;;;13.41;75.47
63500;BME280;49654;51.142;14.924;2022-09-13T04:24:27;98618.72;;;13.49;75.07
63500;BME280;49654;51.142;14.924;2022-09-13T04:26:54;98701.19;;;14.01;74.54
63500;BME280;49654;51.142;14.924;2022-09-13T04:29:23;98753.69;;;14.32;74.72
63500;BME280;49654;51.142;14.924;2022-09-13T04:31:52;98737.41;;;14.29;74.08
63500;BME280;49654;51.142;14.924;2022-09-13T04:34:19;98695.16;;;14.01;74.15
63500;BME280;49654;51.142;14.924;2022-09-13T04:36:48;98687.34;;;13.94;74.50
63500;BME280;49654;51.142;14.924;2022-09-13T04:39:17;98732.63;;;14.20;74.51
63500;BME280;49654;51.142;14.924;2022-09-13T04:41:45;98720.81;;;14.11;74.81
63500;BME280;49654;51.142;14.924;2022-09-13T04:44:14;98755.13;;;14.21;74.75
63500;BME280;49654;51.142;14.924;2022-09-13T04:46:42;98758.44;;;14.41;74.15
63500;BME280;49654;51.142;14.924;2022-09-13T04:49:12;98754.81;;;14.49;73.80
63500;BME280;49654;51.142;14.924;2022-09-13T04:51:40;98731.94;;;14.38;73.51
63500;BME280;49654;51.142;14.924;2022-09-13T04:54:08;98748.16;;;14.46;73.67
63500;BME280;49654;51.142;14.924;2022-09-13T04:56:37;98756.94;;;14.65;73.03
63500;BME280;49654;51.142;14.924;2022-09-13T04:59:04;98757.53;;;14.67;72.91
63500;BME280;49654;51.142;14.924;2022-09-13T05:01:31;98756.97;;;14.59;73.03
63500;BME280;49654;51.142;14.924;2022-09-13T05:03:58;98738.28;;;14.55;72.70
63500;BME280;49654;51.142;14.924;2022-09-13T05:06:25;98746.78;;;14.44;73.27
63500;BME280;49654;51.142;14.924;2022-09-13T05:08:54;98639.00;;;13.92;73.05
63500;BME280;49654;51.142;14.924;2022-09-13T05:11:21;98735.84;;;14.60;72.99
63500;BME280;49654;51.142;14.924;2022-09-13T05:13:50;98736.06;;;14.59;73.25
63500;BME280;49654;51.142;14.924;2022-09-13T05:16:20;98706.53;;;14.58;72.59
63500;BME280;49654;51.142;14.924;2022-09-13T05:18:47;98720.09;;;14.73;72.32
63500;BME280;49654;51.142;14.924;2022-09-13T05:21:14;98720.09;;;14.98;71.88
63500;BME280;49654;51.142;14.924;2022-09-13T05:23:41;98686.47;;;14.77;72.04
63500;BME280;49654;51.142;14.924;2022-09-13T05:26:08;98723.44;;;15.12;71.96
63500;BME280;49654;51.142;14.924;2022-09-13T05:28:36;98651.13;;;14.74;71.73
63500;BME280;49654;51.142;14.924;2022-09-13T05:31:07;98705.97;;;15.06;71.80
63500;BME280;49654;51.142;14.924;2022-09-13T05:33:36;98721.41;;;15.33;71.26
63500;BME280;49654;51.142;14.924;2022-09-13T05:36:04;98647.38;;;14.89;71.14
63500;BME280;49654;51.142;14.924;2022-09-13T05:38:31;98723.19;;;15.39;70.45
63500;BME280;49654;51.142;14.924;2022-09-13T05:41:01;98720.75;;;15.37;70.94
63500;BME280;49654;51.142;14.924;2022-09-13T05:43:31;98718.06;;;15.25;71.51
63500;BME280;49654;51.142;14.924;2022-09-13T05:46:05;98712.59;;;15.09;71.79
63500;BME280;49654;51.142;14.924;2022-09-13T05:48:33;98744.69;;;15.16;71.86
63500;BME280;49654;51.142;14.924;2022-09-13T05:51:04;98665.13;;;14.55;71.65
63500;BME280;49654;51.142;14.924;2022-09-13T05:53:31;98724.44;;;14.86;72.25
63500;BME280;49654;51.142;14.924;2022-09-13T05:55:58;98740.03;;;14.99;72.01
63500;BME280;49654;51.142;14.924;2022-09-13T05:58:25;98700.31;;;14.84;72.54
63500;BME280;49654;51.142;14.924;2022-09-13T06:00:53;98710.09;;;14.95;72.34
63500;BME280;49654;51.142;14.924;2022-09-13T06:03:22;98718.47;;;15.04;72.01
63500;BME280;49654;51.142;14.924;2022-09-13T06:05:53;98671.78;;;14.83;72.08
63500;BME280;49654;51.142;14.924;2022-09-13T06:08:21;98690.00;;;15.14;72.36
63500;BME280;49654;51.142;14.924;2022-09-13T06:10:53;98695.91;;;15.28;71.41
63500;BME280;49654;51.142;14.924;2022-09-13T06:13:20;98682.44;;;15.24;71.76
63500;BME280;49654;51.142;14.924;2022-09-13T06:15:47;98699.50;;;15.52;71.40
63500;BME280;49654;51.142;14.924;2022-09-13T06:18:14;98692.38;;;15.59;70.94
63500;BME280;49654;51.142;14.924;2022-09-13T06:20:43;98700.63;;;15.81;70.42
63500;BME280;49654;51.142;14.924;2022-09-13T06:23:10;98673.41;;;15.82;69.90
63500;BME280;49654;51.142;14.924;2022-09-13T06:25:37;98671.72;;;15.88;69.34
63500;BME280;49654;51.142;14.924;2022-09-13T06:28:05;98683.59;;;16.20;68.93
63500;BME280;49654;51.142;14.924;2022-09-13T06:30:32;98684.56;;;16.38;67.78
63500;BME280;49654;51.142;14.924;2022-09-13T06:32:59;98642.97;;;16.30;67.28
63500;BME280;49654;51.142;14.924;2022-09-13T06:35:26;98616.53;;;16.19;66.76
63500;BME280;49654;51.142;14.924;2022-09-13T06:37:55;98652.63;;;16.71;66.04
63500;BME280;49654;51.142;14.924;2022-09-13T06:40:23;98623.53;;;16.49;66.12
63500;BME280;49654;51.142;14.924;2022-09-13T06:42:51;98666.78;;;16.82;66.52
63500;BME280;49654;51.142;14.924;2022-09-13T06:45:18;98669.84;;;16.78;66.66
63500;BME280;49654;51.142;14.924;2022-09-13T06:47:45;98687.31;;;16.85;67.23
63500;BME280;49654;51.142;14.924;2022-09-13T06:50:12;98685.94;;;16.82;66.74
63500;BME280;49654;51.142;14.924;2022-09-13T06:52:39;98685.25;;;16.87;67.25
63500;BME280;49654;51.142;14.924;2022-09-13T06:55:08;98694.06;;;16.92;66.93
63500;BME280;49654;51.142;14.924;2022-09-13T06:57:35;98698.72;;;16.90;66.85
63500;BME280;49654;51.142;14.924;2022-09-13T07:00:02;98693.03;;;16.93;66.28
63500;BME280;49654;51.142;14.924;2022-09-13T07:02:29;98699.41;;;16.97;66.57
63500;BME280;49654;51.142;14.924;2022-09-13T07:04:57;98682.19;;;16.90;66.41
63500;BME280;49654;51.142;14.924;2022-09-13T07:07:24;98636.72;;;16.84;66.33
63500;BME280;49654;51.142;14.924;2022-09-13T07:09:51;98700.31;;;17.50;65.41
63500;BME280;49654;51.142;14.924;2022-09-13T07:12:19;98676.53;;;17.80;64.62
63500;BME280;49654;51.142;14.924;2022-09-13T07:14:48;98663.00;;;18.29;63.62
63500;BME280;49654;51.142;14.924;2022-09-13T07:17:15;98702.09;;;18.87;60.98
63500;BME280;49654;51.142;14.924;2022-09-13T07:19:42;98689.81;;;18.59;60.87
63500;BME280;49654;51.142;14.924;2022-09-13T07:22:09;98685.81;;;18.57;61.36
63500;BME280;49654;51.142;14.924;2022-09-13T07:24:36;98651.81;;;18.21;60.49
63500;BME280;49654;51.142;14.924;2022-09-13T07:27:03;98700.13;;;18.49;60.25
63500;BME280;49654;51.142;14.924;2022-09-13T07:29:32;98660.53;;;18.39;60.26
63500;BME280;49654;51.142;14.924;2022-09-13T07:31:59;98706.69;;;18.63;59.78
63500;BME280;49654;51.142;14.924;2022-09-13T07:34:26;98690.56;;;18.43;60.35
63500;BME280;49654;51.142;14.924;2022-09-13T07:36:53;98693.41;;;18.70;60.46
63500;BME280;49654;51.142;14.924;2022-09-13T07:39:20;98686.38;;;18.92;60.29
63500;BME280;49654;51.142;14.924;2022-09-13T07:41:48;98695.56;;;19.23;59.31
63500;BME280;49654;51.142;14.924;2022-09-13T07:44:15;98670.75;;;19.19;58.32
63500;BME280;49654;51.142;14.924;2022-09-13T07:46:43;98702.34;;;19.58;58.17
63500;BME280;49654;51.142;14.924;2022-09-13T07:49:11;98700.28;;;19.43;57.65
63500;BME280;49654;51.142;14.924;2022-09-13T07:51:41;98675.88;;;19.31;58.59
63500;BME280;49654;51.142;14.924;2022-09-13T07:54:11;98651.78;;;19.00;57.75
63500;BME280;49654;51.142;14.924;2022-09-13T07:56:39;98693.63;;;19.36;57.64
63500;BME280;49654;51.142;14.924;2022-09-13T07:59:10;98690.09;;;19.30;57.79
63500;BME280;49654;51.142;14.924;2022-09-13T08:01:39;98684.53;;;19.48;58.58
63500;BME280;49654;51.142;14.924;2022-09-13T08:04:08;98682.75;;;19.71;58.03
63500;BME280;49654;51.142;14.924;2022-09-13T08:06:37;98692.22;;;19.50;57.62
63500;BME280;49654;51.142;14.924;2022-09-13T08:09:07;98657.34;;;19.43;57.55
63500;BME280;49654;51.142;14.924;2022-09-13T08:11:36;98686.72;;;19.73;56.91
63500;BME280;49654;51.142;14.924;2022-09-13T08:14:04;98687.78;;;19.72;58.02
63500;BME280;49654;51.142;14.924;2022-09-13T08:16:35;98684.25;;;19.62;57.89
63500;BME280;49654;51.142;14.924;2022-09-13T08:19:07;98674.63;;;19.34;57.55
63500;BME280;49654;51.142;14.924;2022-09-13T08:21:37;98667.19;;;18.92;58.53
63500;BME280;49654;51.142;14.924;2022-09-13T08:24:06;98622.66;;;18.85;59.05
63500;BME280;49654;51.142;14.924;2022-09-13T08:26:35;98696.09;;;19.25;60.03
63500;BME280;49654;51.142;14.924;2022-09-13T08:29:04;98676.47;;;18.66;59.26
63500;BME280;49654;51.142;14.924;2022-09-13T08:31:32;98682.31;;;18.68;60.10
63500;BME280;49654;51.142;14.924;2022-09-13T08:34:00;98699.28;;;18.60;60.94
63500;BME280;49654;51.142;14.924;2022-09-13T08:36:28;98692.09;;;18.56;60.81
63500;BME280;49654;51.142;14.924;2022-09-13T08:38:57;98693.84;;;18.50;61.65
63500;BME280;49654;51.142;14.924;2022-09-13T08:41:49;98672.81;;;18.50;61.73
63500;BME280;49654;51.142;14.924;2022-09-13T08:44:27;98657.13;;;18.38;61.84
63500;BME280;49654;51.142;14.924;2022-09-13T08:47:06;98651.63;;;18.57;62.23
63500;BME280;49654;51.142;14.924;2022-09-13T08:49:42;98664.34;;;18.76;61.99
63500;BME280;49654;51.142;14.924;2022-09-13T08:52:19;98669.75;;;18.87;62.57
63500;BME280;49654;51.142;14.924;2022-09-13T08:54:50;98616.97;;;18.60;62.11
63500;BME280;49654;51.142;14.924;2022-09-13T08:57:22;98661.88;;;18.58;62.95
63500;BME280;49654;51.142;14.924;2022-09-13T09:00:11;98670.78;;;18.86;62.96
63500;BME280;49654;51.142;14.924;2022-09-13T09:02:53;98670.06;;;18.90;61.88
63500;BME280;49654;51.142;14.924;2022-09-13T09:05:24;98656.19;;;18.95;61.60
63500;BME280;49654;51.142;14.924;2022-09-13T09:07:59;98589.88;;;18.42;61.72
63500;BME280;49654;51.142;14.924;2022-09-13T09:10:30;98598.63;;;18.31;62.67
63500;BME280;49654;51.142;14.924;2022-09-13T09:13:01;98594.78;;;17.76;64.43
63500;BME280;49654;51.142;14.924;2022-09-13T09:15:32;98663.22;;;18.27;65.81
63500;BME280;49654;51.142;14.924;2022-09-13T09:18:04;98667.41;;;18.57;64.87
63500;BME280;49654;51.142;14.924;2022-09-13T09:20:36;98647.56;;;18.49;64.41
63500;BME280;49654;51.142;14.924;2022-09-13T09:23:12;98674.59;;;18.95;63.56
63500;BME280;49654;51.142;14.924;2022-09-13T09:25:40;98677.41;;;18.71;63.43
63500;BME280;49654;51.142;14.924;2022-09-13T09:28:11;98685.56;;;18.58;63.63
63500;BME280;49654;51.142;14.924;2022-09-13T09:30:42;98692.31;;;18.37;63.87
63500;BME280;49654;51.142;14.924;2022-09-13T09:33:42;98681.63;;;18.27;65.18
63500;BME280;49654;51.142;14.924;2022-09-13T09:36:17;98689.31;;;18.17;66.81
63500;BME280;49654;51.142;14.924;2022-09-13T09:38:50;98692.28;;;18.20;68.40
63500;BME280;49654;51.142;14.924;2022-09-13T09:41:25;98690.78;;;18.24;68.04
63500;BME280;49654;51.142;14.924;2022-09-13T09:43:58;98686.56;;;18.40;68.25
63500;BME280;49654;51.142;14.924;2022-09-13T09:46:31;98691.91;;;18.45;67.32
63500;BME280;49654;51.142;14.924;2022-09-13T09:49:05;98669.09;;;18.17;67.34
63500;BME280;49654;51.142;14.924;2022-09-13T09:51:56;98673.75;;;18.72;67.13
63500;BME280;49654;51.142;14.924;2022-09-13T09:54:26;98666.63;;;19.07;64.95
63500;BME280;49654;51.142;14.924;2022-09-13T09:56:56;98667.88;;;19.43;65.47
63500;BME280;49654;51.142;14.924;2022-09-13T09:59:25;98662.78;;;19.75;64.99
63500;BME280;49654;51.142;14.924;2022-09-13T10:01:53;98644.53;;;20.17;62.27
63500;BME280;49654;51.142;14.924;2022-09-13T10:04:23;98653.56;;;20.54;61.25
63500;BME280;49654;51.142;14.924;2022-09-13T10:07:07;98647.03;;;20.61;60.28
63500;BME280;49654;51.142;14.924;2022-09-13T10:09:36;98622.97;;;20.53;59.73
63500;BME280;49654;51.142;14.924;2022-09-13T10:12:04;98637.19;;;20.89;58.74
63500;BME280;49654;51.142;14.924;2022-09-13T10:14:38;98642.28;;;20.95;57.58
63500;BME280;49654;51.142;14.924;2022-09-13T10:17:17;98629.44;;;21.14;56.71
63500;BME280;49654;51.142;14.924;2022-09-13T10:19:55;98638.00;;;21.37;55.53
63500;BME280;49654;51.142;14.924;2022-09-13T10:22:24;98635.13;;;21.33;56.55
63500;BME280;49654;51.142;14.924;2022-09-13T10:24:53;98615.69;;;21.70;55.41
63500;BME280;49654;51.142;14.924;2022-09-13T10:27:24;98602.56;;;21.27;55.86
63500;BME280;49654;51.142;14.924;2022-09-13T10:29:53;98615.97;;;21.84;54.89
63500;BME280;49654;51.142;14.924;2022-09-13T10:32:24;98609.38;;;21.76;54.86
63500;BME280;49654;51.142;14.924;2022-09-13T10:34:53;98599.66;;;22.02;54.89
63500;BME280;49654;51.142;14.924;2022-09-13T10:37:23;98601.53;;;22.58;53.27
63500;BME280;49654;51.142;14.924;2022-09-13T10:39:59;98598.59;;;22.64;52.96
63500;BME280;49654;51.142;14.924;2022-09-13T10:42:28;98606.78;;;22.83;51.83
63500;BME280;49654;51.142;14.924;2022-09-13T10:44:57;98597.28;;;22.57;52.54
63500;BME280;49654;51.142;14.924;2022-09-13T10:47:26;98559.75;;;22.44;52.02
63500;BME280;49654;51.142;14.924;2022-09-13T10:49:56;98609.72;;;22.51;52.12
63500;BME280;49654;51.142;14.924;2022-09-13T10:52:26;98610.00;;;22.49;52.24
63500;BME280;49654;51.142;14.924;2022-09-13T10:54:55;98616.09;;;22.24;52.68
63500;BME280;49654;51.142;14.924;2022-09-13T10:57:41;98621.38;;;22.19;52.41
63500;BME280;49654;51.142;14.924;2022-09-13T11:00:10;98580.09;;;22.13;52.89
63500;BME280;49654;51.142;14.924;2022-09-13T11:02:51;98616.34;;;22.23;52.20
63500;BME280;49654;51.142;14.924;2022-09-13T11:05:25;98614.22;;;22.15;52.04
63500;BME280;49654;51.142;14.924;2022-09-13T11:08:07;98612.66;;;22.49;52.03
63500;BME280;49654;51.142;14.924;2022-09-13T11:10:50;98606.28;;;22.30;52.34
63500;BME280;49654;51.142;14.924;2022-09-13T11:13:27;98593.31;;;22.44;51.95
63500;BME280;49654;51.142;14.924;2022-09-13T11:16:10;98593.28;;;22.85;51.47
63500;BME280;49654;51.142;14.924;2022-09-13T11:19:04;98582.69;;;22.90;50.88
63500;BME280;49654;51.142;14.924;2022-09-13T11:21:44;98582.72;;;22.64;51.81
63500;BME280;49654;51.142;14.924;2022-09-13T11:24:32;98572.44;;;22.17;52.85
63500;BME280;49654;51.142;14.924;2022-09-13T11:27:14;98566.34;;;22.42;52.99
63500;BME280;49654;51.142;14.924;2022-09-13T11:29:57;98556.56;;;22.47;52.17
63500;BME280;49654;51.142;14.924;2022-09-13T11:32:36;98567.13;;;22.58;51.36
63500;BME280;49654;51.142;14.924;2022-09-13T11:35:35;98564.47;;;22.63;52.55
63500;BME280;49654;51.142;14.924;2022-09-13T11:41:07;98557.34;;;22.58;52.43
63500;BME280;49654;51.142;14.924;2022-09-13T11:43:56;98556.44;;;23.09;50.74
63500;BME280;49654;51.142;14.924;2022-09-13T11:46:32;98557.28;;;23.54;49.56
63500;BME280;49654;51.142;14.924;2022-09-13T11:49:21;98537.59;;;23.15;50.24
63500;BME280;49654;51.142;14.924;2022-09-13T11:52:02;98549.75;;;23.76;50.27
63500;BME280;49654;51.142;14.924;2022-09-13T11:54:44;98539.91;;;24.50;47.91
63500;BME280;49654;51.142;14.924;2022-09-13T11:57:17;98548.47;;;24.42;47.97
63500;BME280;49654;51.142;14.924;2022-09-13T11:59:48;98543.69;;;24.92;45.54
63500;BME280;49654;51.142;14.924;2022-09-13T12:02:23;98539.13;;;24.73;46.93
63500;BME280;49654;51.142;14.924;2022-09-13T12:04:55;98530.19;;;24.64;46.87
63500;BME280;49654;51.142;14.924;2022-09-13T12:07:31;98541.34;;;24.32;46.58
63500;BME280;49654;51.142;14.924;2022-09-13T12:10:03;98542.16;;;24.33;46.76
63500;BME280;49654;51.142;14.924;2022-09-13T12:12:33;98530.31;;;24.78;47.00
63500;BME280;49654;51.142;14.924;2022-09-13T12:15:06;98522.00;;;24.85;46.02
63500;BME280;49654;51.142;14.924;2022-09-13T12:17:37;98525.97;;;24.34;46.70
63500;BME280;49654;51.142;14.924;2022-09-13T12:20:13;98530.38;;;24.73;46.21
63500;BME280;49654;51.142;14.924;2022-09-13T12:22:42;98514.38;;;25.45;43.35
63500;BME280;49654;51.142;14.924;2022-09-13T12:25:18;98506.53;;;25.35;46.19
63500;BME280;49654;51.142;14.924;2022-09-13T12:27:53;98519.88;;;25.86;43.83
63500;BME280;49654;51.142;14.924;2022-09-13T12:30:27;98509.63;;;25.42;44.34
63500;BME280;49654;51.142;14.924;2022-09-13T12:32:59;98495.63;;;26.53;43.07
63500;BME280;49654;51.142;14.924;2022-09-13T12:35:29;98508.66;;;26.08;42.71
63500;BME280;49654;51.142;14.924;2022-09-13T12:38:12;98503.56;;;26.26;43.97
63500;BME280;49654;51.142;14.924;2022-09-13T12:41:06;98497.56;;;27.16;42.28
63500;BME280;49654;51.142;14.924;2022-09-13T12:43:59;98499.34;;;27.07;41.14
63500;BME280;49654;51.142;14.924;2022-09-13T12:46:44;98491.59;;;27.92;40.20
63500;BME280;49654;51.142;14.924;2022-09-13T12:49:32;98471.28;;;26.00;41.61
63500;BME280;49654;51.142;14.924;2022-09-13T12:52:20;98496.97;;;25.71;43.55
63500;BME280;49654;51.142;14.924;2022-09-13T12:55:14;98491.28;;;25.59;43.73
63500;BME280;49654;51.142;14.924;2022-09-13T12:57:53;98477.53;;;26.22;43.43
63500;BME280;49654;51.142;14.924;2022-09-13T13:00:24;98471.31;;;28.13;39.30
63500;BME280;49654;51.142;14.924;2022-09-13T13:03:02;98481.22;;;29.97;36.38
63500;BME280;49654;51.142;14.924;2022-09-13T13:05:39;98467.09;;;31.02;33.88
63500;BME280;49654;51.142;14.924;2022-09-13T13:08:24;98466.22;;;30.22;34.39
63500;BME280;49654;51.142;14.924;2022-09-13T13:11:03;98478.59;;;29.79;35.82
63500;BME280;49654;51.142;14.924;2022-09-13T13:13:35;98458.13;;;30.68;34.97
63500;BME280;49654;51.142;14.924;2022-09-13T13:16:23;98445.22;;;30.91;33.46
63500;BME280;49654;51.142;14.924;2022-09-13T13:18:52;98456.38;;;32.23;30.80
63500;BME280;49654;51.142;14.924;2022-09-13T13:21:31;98461.56;;;30.78;32.85
63500;BME280;49654;51.142;14.924;2022-09-13T13:24:37;98462.28;;;28.63;37.86